createdAt,value
2022-12-23T00:00:31.437Z,17.67
2022-12-23T00:03:19.632Z,17.68
2022-12-23T00:05:47.665Z,17.69
2022-12-23T00:08:16.079Z,17.70
2022-12-23T00:10:44.640Z,17.71
2022-12-23T00:13:12.932Z,17.72
2022-12-23T00:15:41.138Z,17.72
2022-12-23T00:18:09.737Z,17.71
2022-12-23T00:20:37.856Z,17.69
2022-12-23T00:23:06.724Z,17.67
2022-12-23T00:25:37.223Z,17.63
2022-12-23T00:28:05.496Z,17.59
2022-12-23T00:30:33.735Z,17.58
2022-12-23T00:33:01.878Z,17.54
2022-12-23T00:35:31.610Z,17.51
2022-12-23T00:37:59.788Z,17.48
2022-12-23T00:40:28.531Z,17.46
2022-12-23T00:42:56.782Z,17.43
2022-12-23T00:45:24.968Z,17.41
2022-12-23T00:47:53.763Z,17.39
2022-12-23T00:50:22.646Z,17.37
2022-12-23T00:52:50.860Z,17.35
2022-12-23T00:55:19.645Z,17.33
2022-12-23T00:57:47.861Z,17.32
2022-12-23T01:00:16.832Z,17.30
2022-12-23T01:02:45.391Z,17.28
2022-12-23T01:05:13.548Z,17.25
2022-12-23T01:07:41.680Z,17.25
2022-12-23T01:10:10.354Z,17.22
2022-12-23T01:12:38.695Z,17.20
2022-12-23T01:15:07.609Z,17.19
2022-12-23T01:17:36.174Z,17.19
2022-12-23T01:20:04.951Z,17.19
2022-12-23T01:22:33.209Z,17.18
2022-12-23T01:25:01.600Z,17.17
2022-12-23T01:27:29.764Z,17.15
2022-12-23T01:29:57.879Z,17.14
2022-12-23T01:32:26.272Z,17.13
2022-12-23T01:34:54.459Z,17.12
2022-12-23T01:37:23.072Z,17.11
2022-12-23T01:39:51.301Z,17.09
2022-12-23T01:42:21.209Z,17.07
2022-12-23T01:45:01.669Z,17.06
2022-12-23T01:47:49.911Z,17.03
2022-12-23T01:50:38.239Z,17.01
2022-12-23T01:53:11.969Z,16.98
2022-12-23T01:55:49.754Z,16.94
2022-12-23T01:58:37.982Z,16.91
2022-12-23T02:01:07.516Z,16.88
2022-12-23T02:03:36.797Z,16.84
2022-12-23T02:06:05.405Z,16.81
2022-12-23T02:08:33.666Z,16.79
2022-12-23T02:11:18.882Z,16.76
2022-12-23T02:14:03.585Z,16.73
2022-12-23T02:16:37.999Z,16.69
2022-12-23T02:19:22.918Z,16.67
2022-12-23T02:22:28.453Z,16.64
2022-12-23T02:25:38.259Z,16.62
2022-12-23T02:28:21.278Z,16.60
2022-12-23T02:30:59.985Z,16.59
2022-12-23T02:33:33.727Z,16.56
2022-12-23T02:36:17.401Z,16.54
2022-12-23T02:38:49.994Z,16.52
2022-12-23T02:41:30.505Z,16.50
2022-12-23T02:44:44.575Z,16.48
2022-12-23T02:47:22.011Z,16.46
2022-12-23T02:49:57.362Z,16.46
2022-12-23T02:52:32.135Z,16.45
2022-12-23T02:55:12.556Z,16.44
2022-12-23T02:57:47.463Z,16.46
2022-12-23T03:00:16.852Z,16.48
2022-12-23T03:02:45.447Z,16.48
2022-12-23T03:05:34.860Z,16.47
2022-12-23T03:08:06.223Z,16.45
2022-12-23T03:10:47.474Z,16.43
2022-12-23T03:13:33.049Z,16.42
2022-12-23T03:16:19.764Z,16.42
2022-12-23T03:19:08.078Z,16.40
2022-12-23T03:21:55.102Z,16.40
2022-12-23T03:24:41.761Z,16.39
2022-12-23T03:27:25.265Z,16.39
2022-12-23T03:30:04.597Z,16.39
2022-12-23T03:32:39.852Z,16.41
2022-12-23T03:35:12.915Z,16.40
2022-12-23T03:37:46.033Z,16.41
2022-12-23T03:40:21.647Z,16.39
2022-12-23T03:42:56.980Z,16.39
2022-12-23T03:45:40.339Z,16.37
2022-12-23T03:48:27.171Z,16.37
2022-12-23T03:51:04.831Z,16.35
2022-12-23T03:53:39.456Z,16.35
2022-12-23T03:56:25.067Z,16.33
2022-12-23T03:58:56.816Z,16.32
2022-12-23T04:01:37.707Z,16.30
2022-12-23T04:04:16.053Z,16.28
2022-12-23T04:06:51.283Z,16.26
2022-12-23T04:09:22.549Z,16.24
2022-12-23T04:11:51.842Z,16.22
2022-12-23T04:14:22.424Z,16.19
2022-12-23T04:16:56.540Z,16.16
2022-12-23T04:19:25.395Z,16.12
2022-12-23T04:21:56.491Z,16.10
2022-12-23T04:24:24.590Z,16.07
2022-12-23T04:26:52.832Z,16.05
2022-12-23T04:29:21.029Z,16.02
2022-12-23T04:31:49.321Z,16.01
2022-12-23T04:34:17.965Z,16.00
2022-12-23T04:36:46.294Z,15.98
2022-12-23T04:39:14.391Z,15.96
2022-12-23T04:41:42.745Z,15.94
2022-12-23T04:44:10.925Z,15.92
2022-12-23T04:46:39.173Z,15.91
2022-12-23T04:49:07.543Z,15.89
2022-12-23T04:51:35.782Z,15.87
2022-12-23T04:54:04.093Z,15.85
2022-12-23T04:56:32.388Z,15.83
2022-12-23T04:59:00.584Z,15.80
2022-12-23T05:01:28.987Z,15.77
2022-12-23T05:03:57.986Z,15.74
2022-12-23T05:06:26.702Z,15.71
2022-12-23T05:08:54.882Z,15.67
2022-12-23T05:11:23.695Z,15.63
2022-12-23T05:13:51.847Z,15.60
2022-12-23T05:16:20.227Z,15.56
2022-12-23T05:18:49.019Z,15.54
2022-12-23T05:21:17.410Z,15.51
2022-12-23T05:23:45.669Z,15.50
2022-12-23T05:26:13.940Z,15.48
2022-12-23T05:28:42.157Z,15.47
2022-12-23T05:31:12.011Z,15.46
2022-12-23T05:33:41.372Z,15.44
2022-12-23T05:36:11.220Z,15.42
2022-12-23T05:38:39.538Z,15.40
2022-12-23T05:41:08.152Z,15.37
2022-12-23T05:43:36.376Z,15.35
2022-12-23T05:46:04.712Z,15.32
2022-12-23T05:48:32.949Z,15.29
2022-12-23T05:51:01.180Z,15.26
2022-12-23T05:53:29.447Z,15.23
2022-12-23T05:55:57.974Z,15.20
2022-12-23T05:58:26.148Z,15.17
2022-12-23T06:00:54.161Z,15.15
2022-12-23T06:03:23.141Z,15.12
2022-12-23T06:05:52.271Z,15.10
2022-12-23T06:08:20.981Z,15.10
2022-12-23T06:10:49.663Z,15.10
2022-12-23T06:13:17.863Z,15.10
2022-12-23T06:15:46.995Z,15.10
2022-12-23T06:18:15.467Z,15.10
2022-12-23T06:20:47.827Z,15.09
2022-12-23T06:23:16.099Z,15.09
2022-12-23T06:25:44.597Z,15.08
2022-12-23T06:28:12.956Z,15.07
2022-12-23T06:30:41.228Z,15.06
2022-12-23T06:33:09.472Z,15.06
2022-12-23T06:35:37.675Z,15.05
2022-12-23T06:38:11.845Z,15.05
2022-12-23T06:40:40.847Z,15.05
2022-12-23T06:43:09.174Z,15.04
2022-12-23T06:45:37.431Z,15.04
2022-12-23T06:48:06.523Z,15.04
2022-12-23T06:50:35.943Z,15.03
2022-12-23T06:53:04.702Z,15.04
2022-12-23T06:55:33.171Z,15.06
2022-12-23T06:58:01.726Z,15.09
2022-12-23T07:00:30.006Z,15.13
2022-12-23T07:02:58.331Z,15.17
2022-12-23T07:05:33.286Z,15.20
2022-12-23T07:08:05.880Z,15.22
2022-12-23T07:10:34.872Z,15.23
2022-12-23T07:13:03.267Z,15.24
2022-12-23T07:15:31.347Z,15.25
2022-12-23T07:17:59.552Z,15.27
2022-12-23T07:20:27.577Z,15.27
2022-12-23T07:22:55.974Z,15.28
2022-12-23T07:25:25.773Z,15.29
2022-12-23T07:27:54.929Z,15.32
2022-12-23T07:30:24.079Z,15.37
2022-12-23T07:32:52.939Z,15.43
2022-12-23T07:35:21.188Z,15.49
2022-12-23T07:37:56.719Z,15.57
2022-12-23T07:40:25.938Z,15.66
2022-12-23T07:42:59.331Z,15.76
2022-12-23T07:45:29.422Z,15.89
2022-12-23T07:48:00.145Z,16.05
2022-12-23T07:50:28.587Z,16.32
2022-12-23T07:52:57.108Z,16.77
2022-12-23T07:55:25.982Z,17.43
2022-12-23T07:57:54.149Z,18.30
2022-12-23T08:00:22.674Z,19.26
2022-12-23T08:02:51.081Z,20.13
2022-12-23T08:05:19.519Z,20.97
2022-12-23T08:07:47.806Z,21.55
2022-12-23T08:10:16.596Z,22.03
2022-12-23T08:12:44.838Z,22.44
2022-12-23T08:15:13.011Z,22.50
2022-12-23T08:17:42.644Z,22.30
2022-12-23T08:20:11.262Z,22.07
2022-12-23T08:22:39.773Z,21.97
2022-12-23T08:25:08.304Z,21.88
2022-12-23T08:27:36.546Z,21.78
2022-12-23T08:30:05.239Z,21.88
2022-12-23T08:32:33.462Z,22.26
2022-12-23T08:35:01.699Z,22.87
2022-12-23T08:37:29.982Z,23.42
2022-12-23T08:39:58.661Z,24.01
2022-12-23T08:42:26.831Z,24.68
2022-12-23T08:44:55.013Z,25.25
2022-12-23T08:47:23.405Z,25.73
2022-12-23T08:49:51.595Z,25.92
2022-12-23T08:52:19.773Z,26.12
2022-12-23T08:54:48.437Z,26.46
2022-12-23T08:57:18.021Z,27.01
2022-12-23T08:59:46.282Z,27.78
2022-12-23T09:02:14.681Z,28.53
2022-12-23T09:04:44.282Z,29.15
2022-12-23T09:07:12.502Z,29.59
2022-12-23T09:09:41.059Z,30.10
2022-12-23T09:12:09.371Z,30.78
2022-12-23T09:14:37.656Z,31.33
2022-12-23T09:17:06.264Z,31.72
2022-12-23T09:19:34.542Z,31.99
2022-12-23T09:22:02.718Z,32.20
2022-12-23T09:24:31.202Z,32.38
2022-12-23T09:26:59.602Z,32.36
2022-12-23T09:29:27.887Z,32.22
2022-12-23T09:31:56.285Z,32.25
2022-12-23T09:34:24.703Z,32.47
2022-12-23T09:36:55.393Z,32.60
2022-12-23T09:39:24.278Z,32.72
2022-12-23T09:42:05.617Z,32.90
2022-12-23T09:44:58.566Z,32.84
2022-12-23T09:47:28.701Z,32.57
2022-12-23T09:50:28.242Z,32.22
2022-12-23T09:53:00.816Z,31.46
2022-12-23T09:55:51.743Z,30.62
2022-12-23T09:58:37.012Z,29.77
2022-12-23T10:01:19.714Z,29.33
2022-12-23T10:03:54.074Z,29.40
2022-12-23T10:06:29.183Z,29.69
2022-12-23T10:09:01.555Z,30.15
2022-12-23T10:11:41.848Z,30.73
2022-12-23T10:14:25.378Z,31.34
2022-12-23T10:17:11.314Z,31.57
2022-12-23T10:19:45.765Z,31.97
2022-12-23T10:22:42.858Z,32.43
2022-12-23T10:25:38.648Z,32.87
2022-12-23T10:28:10.159Z,33.01
2022-12-23T10:31:23.861Z,33.32
2022-12-23T10:33:51.914Z,33.86
2022-12-23T10:36:35.173Z,34.89
2022-12-23T10:39:14.881Z,35.90
2022-12-23T10:42:20.300Z,36.31
2022-12-23T10:45:07.312Z,36.03
2022-12-23T10:47:55.337Z,35.59
2022-12-23T10:50:35.453Z,35.28
2022-12-23T10:53:08.990Z,35.05
2022-12-23T10:55:39.196Z,34.70
2022-12-23T10:58:17.921Z,34.54
2022-12-23T11:00:54.313Z,34.69
2022-12-23T11:03:27.204Z,35.04
2022-12-23T11:05:57.102Z,35.36
2022-12-23T11:08:29.342Z,35.62
2022-12-23T11:11:00.399Z,35.86
2022-12-23T11:13:39.916Z,35.99
2022-12-23T11:16:20.041Z,36.22
2022-12-23T11:19:00.351Z,36.52
2022-12-23T11:21:30.888Z,36.79
2022-12-23T11:24:20.029Z,37.04
2022-12-23T11:27:13.255Z,37.13
2022-12-23T11:29:48.331Z,36.55
2022-12-23T11:32:29.366Z,35.64
2022-12-23T11:34:57.745Z,35.14
2022-12-23T11:37:43.633Z,34.84
2022-12-23T11:40:46.095Z,34.67
2022-12-23T11:43:17.420Z,34.09
2022-12-23T11:45:45.686Z,33.65
2022-12-23T11:48:32.200Z,33.27
2022-12-23T11:51:03.144Z,32.74
2022-12-23T11:53:31.555Z,32.02
2022-12-23T11:56:04.447Z,31.14
2022-12-23T11:58:45.123Z,30.11
2022-12-23T12:01:19.868Z,28.98
2022-12-23T12:03:58.770Z,27.89
2022-12-23T12:06:28.703Z,27.01
2022-12-23T12:08:58.937Z,26.37
2022-12-23T12:11:49.408Z,25.89
2022-12-23T12:14:26.343Z,25.43
2022-12-23T12:17:18.455Z,25.14
2022-12-23T12:19:58.778Z,24.90
2022-12-23T12:25:23.946Z,24.45
2022-12-23T12:28:03.291Z,24.16
2022-12-23T12:30:40.856Z,23.89
2022-12-23T12:33:23.593Z,23.75
2022-12-23T12:36:03.329Z,23.68
2022-12-23T12:38:39.879Z,23.57
2022-12-23T12:41:27.043Z,23.46
2022-12-23T12:44:27.560Z,23.38
2022-12-23T12:47:28.495Z,23.24
2022-12-23T12:50:12.729Z,23.18
2022-12-23T12:52:42.868Z,23.14
2022-12-23T12:55:22.076Z,23.12
2022-12-23T12:57:50.453Z,23.12
2022-12-23T13:00:23.810Z,23.09
2022-12-23T13:03:23.119Z,23.08
2022-12-23T13:06:25.613Z,23.07
2022-12-23T13:09:31.571Z,23.09
2022-12-23T13:12:29.511Z,23.10
2022-12-23T13:15:28.949Z,23.09
2022-12-23T13:18:15.380Z,23.08
2022-12-23T13:20:54.695Z,23.09
2022-12-23T13:24:04.453Z,23.11
2022-12-23T13:26:39.621Z,23.01
2022-12-23T13:29:58.784Z,22.93
2022-12-23T13:32:37.547Z,22.87
2022-12-23T13:35:20.116Z,22.78
2022-12-23T13:37:59.326Z,22.67
2022-12-23T13:40:34.272Z,22.56
2022-12-23T13:43:29.009Z,22.48
2022-12-23T13:46:02.916Z,22.43
2022-12-23T13:48:45.307Z,22.44
2022-12-23T13:51:40.096Z,22.50
2022-12-23T13:54:32.119Z,22.57
2022-12-23T13:57:10.316Z,22.65
2022-12-23T13:59:44.657Z,22.72
2022-12-23T14:02:37.899Z,22.81
2022-12-23T14:05:27.043Z,22.86
2022-12-23T14:07:55.643Z,22.91
2022-12-23T14:10:25.395Z,22.97
2022-12-23T14:13:02.224Z,23.01
2022-12-23T14:15:59.598Z,22.96
2022-12-23T14:18:49.602Z,22.89
2022-12-23T14:21:36.430Z,22.83
2022-12-23T14:24:24.639Z,22.78
2022-12-23T14:27:11.614Z,22.76
2022-12-23T14:30:05.954Z,22.77
2022-12-23T14:32:59.285Z,22.75
2022-12-23T14:35:27.735Z,22.76
2022-12-23T14:38:08.346Z,22.79
2022-12-23T14:40:39.829Z,22.83
2022-12-23T14:43:23.767Z,22.81
2022-12-23T14:45:53.875Z,22.75
2022-12-23T14:48:34.601Z,22.67
2022-12-23T14:51:23.448Z,22.47
2022-12-23T14:53:53.925Z,22.28
2022-12-23T14:56:28.458Z,22.22
2022-12-23T14:59:14.569Z,22.16
2022-12-23T15:01:47.144Z,22.00
2022-12-23T15:04:27.357Z,21.90
2022-12-23T15:07:04.144Z,21.77
2022-12-23T15:09:39.045Z,21.65
2022-12-23T15:12:16.954Z,21.59
2022-12-23T15:14:57.376Z,21.52
2022-12-23T15:17:33.027Z,21.40
2022-12-23T15:20:10.386Z,21.26
2022-12-23T15:22:39.881Z,21.16
2022-12-23T15:25:36.287Z,21.07
2022-12-23T15:28:06.564Z,20.99
2022-12-23T15:30:49.296Z,20.91
2022-12-23T15:36:13.757Z,20.77
2022-12-23T15:38:42.264Z,20.67
2022-12-23T15:41:17.713Z,20.55
2022-12-23T15:43:46.403Z,20.47
2022-12-23T15:46:26.866Z,20.40
2022-12-23T15:48:58.511Z,20.26
2022-12-23T15:52:06.475Z,20.17
2022-12-23T15:54:35.514Z,20.08
2022-12-23T15:57:04.714Z,20.02
2022-12-23T15:59:38.835Z,19.96
2022-12-23T16:02:58.242Z,19.93
2022-12-23T16:05:08.427Z,19.87
2022-12-23T16:07:40.828Z,19.79
2022-12-23T16:10:20.847Z,19.73
2022-12-23T16:12:52.237Z,19.69
2022-12-23T16:15:33.595Z,19.66
2022-12-23T16:18:27.624Z,19.60
2022-12-23T16:21:01.932Z,19.49
2022-12-23T16:23:32.925Z,19.38
2022-12-23T16:26:02.592Z,19.26
2022-12-23T16:28:42.891Z,19.13
2022-12-23T16:31:14.771Z,18.99
2022-12-23T16:33:56.725Z,18.87
2022-12-23T16:36:28.146Z,18.79
2022-12-23T16:39:07.179Z,18.71
2022-12-23T16:41:36.211Z,18.65
2022-12-23T16:44:05.368Z,18.61
2022-12-23T16:46:37.881Z,18.55
2022-12-23T16:49:12.915Z,18.49
2022-12-23T16:51:41.525Z,18.43
2022-12-23T16:54:15.789Z,18.38
2022-12-23T16:56:45.460Z,18.32
2022-12-23T16:59:14.663Z,18.29
2022-12-23T17:01:46.335Z,18.26
2022-12-23T17:04:15.431Z,18.23
2022-12-23T17:06:43.720Z,18.21
2022-12-23T17:09:11.875Z,18.19
2022-12-23T17:11:51.020Z,18.17
2022-12-23T17:14:24.275Z,18.15
2022-12-23T17:16:52.777Z,18.13
2022-12-23T17:19:28.056Z,18.11
2022-12-23T17:22:03.037Z,18.07
2022-12-23T17:24:31.332Z,18.04
2022-12-23T17:26:59.605Z,18.02
2022-12-23T17:29:28.068Z,18.00
2022-12-23T17:31:56.250Z,18.00
2022-12-23T17:34:25.104Z,17.97
2022-12-23T17:36:54.936Z,17.95
2022-12-23T17:39:23.074Z,17.94
2022-12-23T17:41:51.704Z,17.93
2022-12-23T17:44:20.105Z,17.92
2022-12-23T17:46:48.568Z,17.90
2022-12-23T17:49:17.042Z,17.90
2022-12-23T17:51:46.633Z,17.89
2022-12-23T17:54:25.259Z,17.89
2022-12-23T17:56:53.751Z,17.88
2022-12-23T17:59:22.383Z,17.87
2022-12-23T18:01:50.856Z,17.86
2022-12-23T18:04:19.387Z,17.84
2022-12-23T18:06:47.560Z,17.83
2022-12-23T18:09:15.920Z,17.82
2022-12-23T18:11:47.145Z,17.81
2022-12-23T18:14:25.769Z,17.80
2022-12-23T18:16:54.289Z,17.79
2022-12-23T18:19:23.011Z,17.78
2022-12-23T18:21:51.815Z,17.78
2022-12-23T18:24:20.031Z,17.77
2022-12-23T18:26:48.218Z,17.77
2022-12-23T18:29:16.542Z,17.76
2022-12-23T18:31:52.288Z,17.75
2022-12-23T18:34:21.353Z,17.74
2022-12-23T18:36:49.857Z,17.73
2022-12-23T18:39:18.061Z,17.73
2022-12-23T18:41:46.449Z,17.73
2022-12-23T18:44:21.713Z,17.72
2022-12-23T18:46:50.389Z,17.73
2022-12-23T18:49:19.198Z,17.74
2022-12-23T18:51:48.090Z,17.74
2022-12-23T18:54:17.627Z,17.73
2022-12-23T18:56:45.871Z,17.72
2022-12-23T18:59:27.532Z,17.69
2022-12-23T19:01:58.003Z,17.67
2022-12-23T19:04:27.652Z,17.65
2022-12-23T19:06:56.894Z,17.63
2022-12-23T19:09:25.079Z,17.59
2022-12-23T19:11:53.714Z,17.57
2022-12-23T19:14:22.120Z,17.54
2022-12-23T19:16:52.209Z,17.51
2022-12-23T19:19:22.120Z,17.49
2022-12-23T19:21:50.383Z,17.48
2022-12-23T19:24:18.620Z,17.45
2022-12-23T19:26:48.214Z,17.43
2022-12-23T19:29:16.703Z,17.41
2022-12-23T19:31:44.874Z,17.39
2022-12-23T19:34:15.690Z,17.39
2022-12-23T19:36:44.525Z,17.38
2022-12-23T19:39:14.022Z,17.37
2022-12-23T19:41:42.569Z,17.35
2022-12-23T19:44:10.688Z,17.34
2022-12-23T19:46:39.115Z,17.32
2022-12-23T19:49:07.957Z,17.30
2022-12-23T19:51:37.367Z,17.29
2022-12-23T19:54:06.303Z,17.28
2022-12-23T19:56:35.180Z,17.27
2022-12-23T19:59:03.556Z,17.27
2022-12-23T20:01:32.263Z,17.26
2022-12-23T20:04:00.635Z,17.25
2022-12-23T20:06:32.549Z,17.23
2022-12-23T20:09:01.733Z,17.21
2022-12-23T20:11:35.501Z,17.19
2022-12-23T20:14:05.404Z,17.18
2022-12-23T20:16:34.799Z,17.15
2022-12-23T20:19:03.703Z,17.12
2022-12-23T20:21:32.486Z,17.09
2022-12-23T20:24:01.883Z,17.07
2022-12-23T20:26:32.519Z,17.05
2022-12-23T20:29:00.627Z,17.03
2022-12-23T20:31:32.098Z,17.00
2022-12-23T20:34:02.783Z,16.98
2022-12-23T20:36:34.290Z,16.95
2022-12-23T20:39:04.878Z,16.93
2022-12-23T20:41:33.361Z,16.91
2022-12-23T20:44:33.422Z,16.89
2022-12-23T20:46:50.699Z,16.85
2022-12-23T20:49:18.995Z,16.83
2022-12-23T20:51:47.193Z,16.80
2022-12-23T20:54:15.650Z,16.79
2022-12-23T20:56:43.946Z,16.76
2022-12-23T20:59:12.441Z,16.75
2022-12-23T21:01:41.380Z,16.73
2022-12-23T21:04:15.366Z,16.71
2022-12-23T21:06:44.908Z,16.69
2022-12-23T21:09:14.380Z,16.66
2022-12-23T21:11:45.688Z,16.64
2022-12-23T21:14:14.948Z,16.63
2022-12-23T21:16:43.601Z,16.62
2022-12-23T21:19:22.681Z,16.61
2022-12-23T21:21:52.002Z,16.59
2022-12-23T21:24:21.027Z,16.58
2022-12-23T21:26:56.021Z,16.56
2022-12-23T21:29:26.320Z,16.53
2022-12-23T21:31:54.803Z,16.51
2022-12-23T21:34:23.454Z,16.50
2022-12-23T21:36:54.190Z,16.48
2022-12-23T21:39:22.748Z,16.45
2022-12-23T21:41:51.148Z,16.43
2022-12-23T21:44:19.503Z,16.40
2022-12-23T21:46:50.680Z,16.36
2022-12-23T21:49:19.426Z,16.33
2022-12-23T21:51:47.799Z,16.32
2022-12-23T21:54:16.082Z,16.30
2022-12-23T21:56:44.931Z,16.28
2022-12-23T21:59:14.609Z,16.27
2022-12-23T22:01:44.124Z,16.24
2022-12-23T22:04:12.868Z,16.22
2022-12-23T22:06:42.998Z,16.20
2022-12-23T22:09:14.688Z,16.19
2022-12-23T22:11:43.175Z,16.18
2022-12-23T22:14:15.169Z,16.16
2022-12-23T22:16:43.642Z,16.14
2022-12-23T22:19:12.406Z,16.10
2022-12-23T22:21:40.577Z,16.08
2022-12-23T22:24:09.004Z,16.05
2022-12-23T22:26:37.430Z,16.04
2022-12-23T22:29:06.359Z,16.02
2022-12-23T22:31:38.486Z,16.00
2022-12-23T22:34:08.395Z,15.99
2022-12-23T22:36:36.735Z,15.98
2022-12-23T22:39:07.854Z,15.96
2022-12-23T22:41:36.630Z,15.95
2022-12-23T22:44:04.958Z,15.94
2022-12-23T22:46:33.456Z,15.91
2022-12-23T22:49:03.053Z,15.91
2022-12-23T22:51:32.145Z,15.89
2022-12-23T22:54:03.314Z,15.89
2022-12-23T22:56:32.817Z,15.87
2022-12-23T22:59:01.086Z,15.87
2022-12-23T23:01:32.827Z,15.86
2022-12-23T23:04:03.144Z,15.85
2022-12-23T23:06:34.860Z,15.85
2022-12-23T23:09:03.648Z,15.84
2022-12-23T23:11:31.827Z,15.84
2022-12-23T23:14:00.781Z,15.83
2022-12-23T23:16:29.996Z,15.82
2022-12-23T23:18:58.261Z,15.79
2022-12-23T23:21:28.925Z,15.78
2022-12-23T23:23:58.046Z,15.76
2022-12-23T23:26:27.013Z,15.76
2022-12-23T23:28:56.606Z,15.73
2022-12-23T23:31:41.934Z,15.71
2022-12-23T23:34:12.953Z,15.69
2022-12-23T23:36:41.337Z,15.68
2022-12-23T23:39:12.289Z,15.66
2022-12-23T23:41:40.629Z,15.64
2022-12-23T23:44:09.841Z,15.63
2022-12-23T23:46:39.674Z,15.61
2022-12-23T23:49:07.920Z,15.59
2022-12-23T23:51:36.079Z,15.57
2022-12-23T23:54:04.524Z,15.55
2022-12-23T23:56:38.259Z,15.52
2022-12-23T23:59:08.916Z,15.51
